createdAt,value
2023-05-10T00:00:05.812Z,88.61
2023-05-10T00:01:14.684Z,88.83
2023-05-10T00:02:16.279Z,88.67
2023-05-10T00:03:17.909Z,88.85
2023-05-10T00:04:19.577Z,89.29
2023-05-10T00:05:21.266Z,89.14
2023-05-10T00:06:22.900Z,89.22
2023-05-10T00:07:24.423Z,89.16
2023-05-10T00:08:25.951Z,89.24
2023-05-10T00:09:27.478Z,89.57
2023-05-10T00:10:29.043Z,89.25
2023-05-10T00:11:30.627Z,89.79
2023-05-10T00:12:32.136Z,90.08
2023-05-10T00:13:34.064Z,90.09
2023-05-10T00:14:35.665Z,90.07
2023-05-10T00:15:37.227Z,90.46
2023-05-10T00:16:38.801Z,90.33
2023-05-10T00:17:40.488Z,90.24
2023-05-10T00:18:42.024Z,90.50
2023-05-10T00:19:43.524Z,90.23
2023-05-10T00:20:45.071Z,90.15
2023-05-10T00:21:46.612Z,89.71
2023-05-10T00:22:48.188Z,90.03
2023-05-10T00:23:49.696Z,90.51
2023-05-10T00:24:51.186Z,90.61
2023-05-10T00:25:52.696Z,90.66
2023-05-10T00:26:54.219Z,90.92
2023-05-10T00:27:55.715Z,91.26
2023-05-10T00:28:57.219Z,91.10
2023-05-10T00:29:58.757Z,91.11
2023-05-10T00:31:00.265Z,90.78
2023-05-10T00:32:01.923Z,90.92
2023-05-10T00:33:03.594Z,90.67
2023-05-10T00:34:05.168Z,91.03
2023-05-10T00:35:07.096Z,90.76
2023-05-10T00:36:08.837Z,90.82
2023-05-10T00:37:10.467Z,90.56
2023-05-10T00:38:12.003Z,90.50
2023-05-10T00:39:13.496Z,90.54
2023-05-10T00:40:15.452Z,90.78
2023-05-10T00:41:20.067Z,90.59
2023-05-10T00:42:22.254Z,90.85
2023-05-10T00:43:23.987Z,90.90
2023-05-10T00:44:25.627Z,91.48
2023-05-10T00:45:27.252Z,91.88
2023-05-10T00:46:29.692Z,91.99
2023-05-10T00:47:32.236Z,92.38
2023-05-10T00:48:34.503Z,92.30
2023-05-10T00:49:37.313Z,92.82
2023-05-10T00:50:39.314Z,92.87
2023-05-10T00:51:40.879Z,93.18
2023-05-10T00:52:43.669Z,93.50
2023-05-10T00:53:47.044Z,93.40
2023-05-10T00:54:48.818Z,93.34
2023-05-10T00:55:50.373Z,93.23
2023-05-10T00:56:52.501Z,93.09
2023-05-10T00:57:54.665Z,93.48
2023-05-10T00:58:56.524Z,93.12
2023-05-10T00:59:58.863Z,93.36
2023-05-10T01:01:02.154Z,93.52
2023-05-10T01:02:03.980Z,93.76
2023-05-10T01:03:05.625Z,93.65
2023-05-10T01:04:07.578Z,94.04
2023-05-10T01:05:09.387Z,93.93
2023-05-10T01:06:11.244Z,93.91
2023-05-10T01:07:12.806Z,93.90
2023-05-10T01:08:14.679Z,93.74
2023-05-10T01:09:16.301Z,93.62
2023-05-10T01:10:18.256Z,93.58
2023-05-10T01:11:20.136Z,94.19
2023-05-10T01:12:21.871Z,94.19
2023-05-10T01:13:43.892Z,94.06
2023-05-10T01:14:45.793Z,93.96
2023-05-10T01:15:47.499Z,94.23
2023-05-10T01:16:51.045Z,94.73
2023-05-10T01:17:53.481Z,94.85
2023-05-10T01:18:55.107Z,94.60
2023-05-10T01:19:56.651Z,94.61
2023-05-10T01:21:28.177Z,94.38
2023-05-10T01:23:01.040Z,94.45
2023-05-10T01:24:26.894Z,94.40
2023-05-10T01:25:53.182Z,93.93
2023-05-10T01:27:16.068Z,93.84
2023-05-10T01:28:48.450Z,93.76
2023-05-10T01:30:05.068Z,93.99
2023-05-10T01:31:58.403Z,93.93
2023-05-10T01:33:52.182Z,93.71
2023-05-10T01:35:17.927Z,93.94
2023-05-10T01:36:28.034Z,94.67
2023-05-10T01:37:47.597Z,94.48
2023-05-10T01:38:58.155Z,96.32
2023-05-10T01:40:03.149Z,96.16
2023-05-10T01:41:41.157Z,95.71
2023-05-10T01:42:50.919Z,96.83
2023-05-10T01:44:02.103Z,96.29
2023-05-10T01:45:15.444Z,95.48
2023-05-10T01:46:28.273Z,96.02
2023-05-10T01:47:35.864Z,96.37
2023-05-10T01:48:47.737Z,97.00
2023-05-10T01:49:51.049Z,96.76
2023-05-10T01:50:53.242Z,95.47
2023-05-10T01:52:04.944Z,95.09
2023-05-10T01:53:08.898Z,94.69
2023-05-10T01:54:13.036Z,94.47
2023-05-10T01:55:17.525Z,94.42
2023-05-10T01:56:24.280Z,93.98
2023-05-10T01:57:33.418Z,93.85
2023-05-10T01:58:37.271Z,94.58
2023-05-10T01:59:41.159Z,94.77
2023-05-10T02:00:47.078Z,95.40
2023-05-10T02:01:50.899Z,95.61
2023-05-10T02:02:53.685Z,96.31
2023-05-10T02:03:57.210Z,96.47
2023-05-10T02:05:00.403Z,95.47
2023-05-10T02:06:04.388Z,95.90
2023-05-10T02:07:07.446Z,95.45
2023-05-10T02:08:10.141Z,95.58
2023-05-10T02:09:12.970Z,94.94
2023-05-10T02:10:16.814Z,94.46
2023-05-10T02:11:20.600Z,94.36
2023-05-10T02:12:24.968Z,94.11
2023-05-10T02:13:28.236Z,94.33
2023-05-10T02:14:33.187Z,95.44
2023-05-10T02:15:36.035Z,94.73
2023-05-10T02:16:39.808Z,93.87
2023-05-10T02:17:43.425Z,94.00
2023-05-10T02:18:45.844Z,93.63
2023-05-10T02:19:48.571Z,93.42
2023-05-10T02:20:51.736Z,93.75
2023-05-10T02:21:54.988Z,93.90
2023-05-10T02:22:58.580Z,94.97
2023-05-10T02:24:02.425Z,94.92
2023-05-10T02:25:04.930Z,93.96
2023-05-10T02:26:07.565Z,93.85
2023-05-10T02:27:10.696Z,94.11
2023-05-10T02:28:15.235Z,93.89
2023-05-10T02:29:18.231Z,93.64
2023-05-10T02:30:20.207Z,93.62
2023-05-10T02:31:23.204Z,93.26
2023-05-10T02:32:26.953Z,93.13
2023-05-10T02:33:30.069Z,92.89
2023-05-10T02:34:32.673Z,92.94
2023-05-10T02:35:35.803Z,92.62
2023-05-10T02:36:39.002Z,92.71
2023-05-10T02:37:41.141Z,92.58
2023-05-10T02:38:44.092Z,92.62
2023-05-10T02:39:48.156Z,92.43
2023-05-10T02:40:49.974Z,92.54
2023-05-10T02:41:54.469Z,92.96
2023-05-10T02:42:57.875Z,93.09
2023-05-10T02:44:01.976Z,92.90
2023-05-10T02:45:08.698Z,93.48
2023-05-10T02:46:10.837Z,93.72
2023-05-10T02:47:12.472Z,93.68
2023-05-10T02:48:14.067Z,93.44
2023-05-10T02:49:16.514Z,93.50
2023-05-10T02:50:18.727Z,93.36
2023-05-10T02:51:25.325Z,93.92
2023-05-10T02:52:31.415Z,93.91
2023-05-10T02:53:35.909Z,93.58
2023-05-10T02:54:50.206Z,93.53
2023-05-10T02:55:56.076Z,93.61
2023-05-10T02:56:59.603Z,93.54
2023-05-10T02:58:02.485Z,93.51
2023-05-10T02:59:04.014Z,93.45
2023-05-10T03:00:06.387Z,93.41
2023-05-10T03:01:07.987Z,93.32
2023-05-10T03:02:10.967Z,93.45
2023-05-10T03:03:12.696Z,93.77
2023-05-10T03:04:14.503Z,93.52
2023-05-10T03:05:16.119Z,93.58
2023-05-10T03:06:17.680Z,93.87
2023-05-10T03:07:19.892Z,93.84
2023-05-10T03:08:24.386Z,94.96
2023-05-10T03:09:25.914Z,94.74
2023-05-10T03:10:30.262Z,94.57
2023-05-10T03:12:06.467Z,94.53
2023-05-10T03:13:29.114Z,94.51
2023-05-10T03:14:43.162Z,94.35
2023-05-10T03:16:04.178Z,94.56
2023-05-10T03:17:30.219Z,94.41
2023-05-10T03:18:55.605Z,94.56
2023-05-10T03:20:07.408Z,94.60
2023-05-10T03:21:12.636Z,94.69
2023-05-10T03:22:32.578Z,94.91
2023-05-10T03:23:48.988Z,95.05
2023-05-10T03:24:52.941Z,94.90
2023-05-10T03:25:55.340Z,95.20
2023-05-10T03:26:58.803Z,95.39
2023-05-10T03:28:02.775Z,95.43
2023-05-10T03:29:05.911Z,95.73
2023-05-10T03:30:11.583Z,95.73
2023-05-10T03:31:13.501Z,95.59
2023-05-10T03:32:15.544Z,95.85
2023-05-10T03:33:17.193Z,95.67
2023-05-10T03:34:25.088Z,95.43
2023-05-10T03:35:27.214Z,95.56
2023-05-10T03:36:28.736Z,95.53
2023-05-10T03:37:31.007Z,95.42
2023-05-10T03:38:32.556Z,95.51
2023-05-10T03:39:34.439Z,95.68
2023-05-10T03:40:37.104Z,95.89
2023-05-10T03:41:38.601Z,95.75
2023-05-10T03:42:40.129Z,95.59
2023-05-10T03:43:41.664Z,95.30
2023-05-10T03:44:43.154Z,95.61
2023-05-10T03:45:44.958Z,95.51
2023-05-10T03:46:46.485Z,95.57
2023-05-10T03:47:48.159Z,95.47
2023-05-10T03:48:49.726Z,95.42
2023-05-10T03:49:51.276Z,95.44
2023-05-10T03:50:53.160Z,95.44
2023-05-10T03:51:54.691Z,95.22
2023-05-10T03:52:56.303Z,95.47
2023-05-10T03:53:57.856Z,95.22
2023-05-10T03:54:59.384Z,95.08
2023-05-10T03:56:00.973Z,95.08
2023-05-10T03:57:02.496Z,94.57
2023-05-10T03:58:06.095Z,94.55
2023-05-10T03:59:08.647Z,94.53
2023-05-10T04:00:11.249Z,94.61
2023-05-10T04:01:18.730Z,94.20
2023-05-10T04:02:21.749Z,94.34
2023-05-10T04:03:23.390Z,94.95
2023-05-10T04:04:25.081Z,94.78
2023-05-10T04:05:26.592Z,94.90
2023-05-10T04:06:28.477Z,94.84
2023-05-10T04:07:30.484Z,94.91
2023-05-10T04:08:32.441Z,95.01
2023-05-10T04:09:33.984Z,95.08
2023-05-10T04:10:35.551Z,95.11
2023-05-10T04:11:37.096Z,95.25
2023-05-10T04:12:38.656Z,95.00
2023-05-10T04:13:40.234Z,95.51
2023-05-10T04:14:41.737Z,95.47
2023-05-10T04:15:43.253Z,94.70
2023-05-10T04:16:44.808Z,94.79
2023-05-10T04:17:46.361Z,94.98
2023-05-10T04:18:47.922Z,94.83
2023-05-10T04:19:49.422Z,94.63
2023-05-10T04:20:50.919Z,94.46
2023-05-10T04:21:52.442Z,94.00
2023-05-10T04:22:54.000Z,93.67
2023-05-10T04:23:55.530Z,93.50
2023-05-10T04:24:57.046Z,93.01
2023-05-10T04:26:02.249Z,93.21
2023-05-10T04:27:03.800Z,93.30
2023-05-10T04:28:05.324Z,93.02
2023-05-10T04:29:06.975Z,93.31
2023-05-10T04:30:09.007Z,92.76
2023-05-10T04:31:11.007Z,92.86
2023-05-10T04:32:12.616Z,93.24
2023-05-10T04:33:14.122Z,93.30
2023-05-10T04:34:15.718Z,92.92
2023-05-10T04:35:17.329Z,92.72
2023-05-10T04:36:18.879Z,93.06
2023-05-10T04:37:20.495Z,92.99
2023-05-10T04:38:22.065Z,93.58
2023-05-10T04:39:23.604Z,93.80
2023-05-10T04:40:25.109Z,93.44
2023-05-10T04:41:26.617Z,93.18
2023-05-10T04:42:28.153Z,93.28
2023-05-10T04:43:29.854Z,93.89
2023-05-10T04:44:31.367Z,93.76
2023-05-10T04:45:32.838Z,94.42
2023-05-10T04:46:34.401Z,94.15
2023-05-10T04:47:36.021Z,93.58
2023-05-10T04:48:37.590Z,93.06
2023-05-10T04:49:39.307Z,91.37
2023-05-10T04:50:40.852Z,90.92
2023-05-10T04:51:42.402Z,91.24
2023-05-10T04:52:43.918Z,91.28
2023-05-10T04:53:51.163Z,91.84
2023-05-10T04:54:59.631Z,91.71
2023-05-10T04:56:01.146Z,91.57
2023-05-10T04:57:02.673Z,91.92
2023-05-10T04:58:04.193Z,92.71
2023-05-10T04:59:05.719Z,93.05
2023-05-10T05:00:08.001Z,92.47
2023-05-10T05:01:10.156Z,92.19
2023-05-10T05:02:11.741Z,91.85
2023-05-10T05:03:13.342Z,90.87
2023-05-10T05:04:14.907Z,91.23
2023-05-10T05:05:16.575Z,91.19
2023-05-10T05:06:18.074Z,90.65
2023-05-10T05:07:19.583Z,90.23
2023-05-10T05:08:21.124Z,90.10
2023-05-10T05:09:22.644Z,89.75
2023-05-10T05:10:24.186Z,89.37
2023-05-10T05:11:25.720Z,89.47
2023-05-10T05:12:27.235Z,88.65
2023-05-10T05:13:28.818Z,88.28
2023-05-10T05:14:30.384Z,88.82
2023-05-10T05:15:32.041Z,87.88
2023-05-10T05:16:33.617Z,87.65
2023-05-10T05:17:35.194Z,87.66
2023-05-10T05:18:36.703Z,85.49
2023-05-10T05:19:38.224Z,84.74
2023-05-10T05:20:39.767Z,84.85
2023-05-10T05:21:41.338Z,85.00
2023-05-10T05:22:42.870Z,82.35
2023-05-10T05:23:44.871Z,80.76
2023-05-10T05:24:46.441Z,80.99
2023-05-10T05:25:47.982Z,80.77
2023-05-10T05:26:49.750Z,79.81
2023-05-10T05:27:51.288Z,79.35
2023-05-10T05:28:52.837Z,77.52
2023-05-10T05:29:55.511Z,78.58
2023-05-10T05:30:57.187Z,79.03
2023-05-10T05:31:58.829Z,77.87
2023-05-10T05:33:00.435Z,77.48
2023-05-10T05:34:02.074Z,76.35
2023-05-10T05:35:03.746Z,76.33
2023-05-10T05:36:06.407Z,76.13
2023-05-10T05:37:07.964Z,74.02
2023-05-10T05:38:09.716Z,73.77
2023-05-10T05:39:11.241Z,74.28
2023-05-10T05:40:15.694Z,74.48
2023-05-10T05:41:17.241Z,74.06
2023-05-10T05:42:18.773Z,74.45
2023-05-10T05:43:20.338Z,72.83
2023-05-10T05:44:21.864Z,74.06
2023-05-10T05:45:23.369Z,73.83
2023-05-10T05:46:24.955Z,74.29
2023-05-10T05:47:26.542Z,73.97
2023-05-10T05:48:28.132Z,73.78
2023-05-10T05:49:29.739Z,74.54
2023-05-10T05:50:31.244Z,74.32
2023-05-10T05:51:32.779Z,73.60
2023-05-10T05:52:34.283Z,74.39
2023-05-10T05:53:35.771Z,74.62
2023-05-10T05:54:37.249Z,75.35
2023-05-10T05:55:38.792Z,73.24
2023-05-10T05:56:40.340Z,73.87
2023-05-10T05:57:41.853Z,74.57
2023-05-10T05:58:43.331Z,74.23
2023-05-10T05:59:44.910Z,72.78
2023-05-10T06:00:46.468Z,72.32
2023-05-10T06:01:48.160Z,72.38
2023-05-10T06:02:49.778Z,73.14
2023-05-10T06:03:53.325Z,73.83
2023-05-10T06:04:55.124Z,73.37
2023-05-10T06:05:56.668Z,72.76
2023-05-10T06:06:58.169Z,72.52
2023-05-10T06:08:00.857Z,72.86
2023-05-10T06:09:02.364Z,73.15
2023-05-10T06:10:04.542Z,73.64
2023-05-10T06:11:06.083Z,73.90
2023-05-10T06:12:07.668Z,73.32
2023-05-10T06:13:09.381Z,73.58
2023-05-10T06:14:10.958Z,73.78
2023-05-10T06:15:12.633Z,72.79
2023-05-10T06:16:14.230Z,71.36
2023-05-10T06:17:15.859Z,71.77
2023-05-10T06:18:17.439Z,72.64
2023-05-10T06:19:18.933Z,73.00
2023-05-10T06:20:20.488Z,70.69
2023-05-10T06:21:22.042Z,71.45
2023-05-10T06:22:23.562Z,70.60
2023-05-10T06:23:25.266Z,70.71
2023-05-10T06:24:26.776Z,71.22
2023-05-10T06:25:28.376Z,72.58
2023-05-10T06:26:29.928Z,73.42
2023-05-10T06:27:31.429Z,73.86
2023-05-10T06:28:32.936Z,74.35
2023-05-10T06:29:34.476Z,74.00
2023-05-10T06:30:37.465Z,72.43
2023-05-10T06:31:39.117Z,72.16
2023-05-10T06:32:40.739Z,72.92
2023-05-10T06:33:42.366Z,73.24
2023-05-10T06:34:43.948Z,71.40
2023-05-10T06:35:45.439Z,70.59
2023-05-10T06:36:46.950Z,71.36
2023-05-10T06:37:48.512Z,71.79
2023-05-10T06:38:50.062Z,71.41
2023-05-10T06:39:51.596Z,72.27
2023-05-10T06:40:53.140Z,71.65
2023-05-10T06:41:54.611Z,71.89
2023-05-10T06:42:56.181Z,70.29
2023-05-10T06:43:57.706Z,69.95
2023-05-10T06:44:59.221Z,70.81
2023-05-10T06:46:00.737Z,70.56
2023-05-10T06:47:02.371Z,71.49
2023-05-10T06:48:04.132Z,71.59
2023-05-10T06:49:05.667Z,71.26
2023-05-10T06:50:08.705Z,71.48
2023-05-10T06:51:10.237Z,70.50
2023-05-10T06:52:11.805Z,70.76
2023-05-10T06:53:13.346Z,71.73
2023-05-10T06:54:14.981Z,70.16
2023-05-10T06:55:16.714Z,70.06
2023-05-10T06:56:18.540Z,69.92
2023-05-10T06:57:31.092Z,69.22
2023-05-10T06:58:33.071Z,70.42
2023-05-10T06:59:34.679Z,71.26
2023-05-10T07:00:36.321Z,69.68
2023-05-10T07:01:37.919Z,70.25
2023-05-10T07:02:39.485Z,69.33
2023-05-10T07:03:41.041Z,70.43
2023-05-10T07:04:42.621Z,69.78
2023-05-10T07:05:44.214Z,68.86
2023-05-10T07:06:45.729Z,69.44
2023-05-10T07:07:47.268Z,68.01
2023-05-10T07:08:48.794Z,68.14
2023-05-10T07:09:50.343Z,68.92
2023-05-10T07:10:51.871Z,68.38
2023-05-10T07:11:53.402Z,70.32
2023-05-10T07:12:55.084Z,70.67
2023-05-10T07:13:57.834Z,68.73
2023-05-10T07:14:59.409Z,68.03
2023-05-10T07:16:01.701Z,68.25
2023-05-10T07:17:03.283Z,68.45
2023-05-10T07:18:04.889Z,67.61
2023-05-10T07:19:06.513Z,66.97
2023-05-10T07:20:08.889Z,66.88
2023-05-10T07:21:10.450Z,68.52
2023-05-10T07:22:12.062Z,67.72
2023-05-10T07:23:13.567Z,66.61
2023-05-10T07:24:15.087Z,66.69
2023-05-10T07:25:16.918Z,67.06
2023-05-10T07:26:18.537Z,66.97
2023-05-10T07:27:20.082Z,66.80
2023-05-10T07:28:21.633Z,67.13
2023-05-10T07:29:23.150Z,66.94
2023-05-10T07:30:24.718Z,67.58
2023-05-10T07:31:26.266Z,65.18
2023-05-10T07:32:28.006Z,65.75
2023-05-10T07:33:29.728Z,65.05
2023-05-10T07:34:31.399Z,65.03
2023-05-10T07:35:32.915Z,66.74
2023-05-10T07:36:34.465Z,66.90
2023-05-10T07:37:36.074Z,65.53
2023-05-10T07:38:40.247Z,66.33
2023-05-10T07:39:42.443Z,65.39
2023-05-10T07:40:43.977Z,66.35
2023-05-10T07:41:45.475Z,66.31
2023-05-10T07:42:47.028Z,67.49
2023-05-10T07:43:48.576Z,66.71
2023-05-10T07:44:50.091Z,66.87
2023-05-10T07:45:52.781Z,64.92
2023-05-10T07:46:56.246Z,66.21
2023-05-10T07:47:57.767Z,67.00
2023-05-10T07:48:59.303Z,68.13
2023-05-10T07:50:00.935Z,66.52
2023-05-10T07:51:02.512Z,64.84
2023-05-10T07:52:04.675Z,65.19
2023-05-10T07:53:06.206Z,64.78
2023-05-10T07:54:07.717Z,65.08
2023-05-10T07:55:09.958Z,64.10
2023-05-10T07:56:28.892Z,64.11
2023-05-10T07:57:30.431Z,62.52
2023-05-10T07:58:31.939Z,61.41
2023-05-10T07:59:33.421Z,61.30
2023-05-10T08:00:34.952Z,61.05
2023-05-10T08:01:36.618Z,61.76
2023-05-10T08:02:38.256Z,61.76
2023-05-10T08:03:39.830Z,60.93
2023-05-10T08:04:41.349Z,60.36
2023-05-10T08:05:43.371Z,60.42
2023-05-10T08:06:44.922Z,59.52
2023-05-10T08:07:46.433Z,60.08
2023-05-10T08:08:49.262Z,61.04
2023-05-10T08:09:50.842Z,59.83
2023-05-10T08:10:52.354Z,60.31
2023-05-10T08:11:53.891Z,60.92
2023-05-10T08:12:55.378Z,61.56
2023-05-10T08:13:56.924Z,62.78
2023-05-10T08:14:58.416Z,62.71
2023-05-10T08:15:59.950Z,60.50
2023-05-10T08:17:01.528Z,62.81
2023-05-10T08:18:03.072Z,63.42
2023-05-10T08:19:04.653Z,63.32
2023-05-10T08:20:06.618Z,63.75
2023-05-10T08:21:08.268Z,64.54
2023-05-10T08:22:09.794Z,63.41
2023-05-10T08:23:13.200Z,63.21
2023-05-10T08:24:14.928Z,62.76
2023-05-10T08:25:16.860Z,61.79
2023-05-10T08:26:18.575Z,61.43
2023-05-10T08:27:20.154Z,60.47
2023-05-10T08:28:21.663Z,59.81
2023-05-10T08:29:23.250Z,59.64
2023-05-10T08:30:24.781Z,59.46
2023-05-10T08:31:26.398Z,58.58
2023-05-10T08:32:28.034Z,58.52
2023-05-10T08:33:29.581Z,58.34
2023-05-10T08:34:31.061Z,57.28
2023-05-10T08:35:32.599Z,57.60
2023-05-10T08:36:34.136Z,60.49
2023-05-10T08:37:35.686Z,61.34
2023-05-10T08:38:38.620Z,61.44
2023-05-10T08:39:40.250Z,63.09
2023-05-10T08:40:43.829Z,61.76
2023-05-10T08:41:47.764Z,61.79
2023-05-10T08:43:22.010Z,58.82
2023-05-10T08:44:24.396Z,59.84
2023-05-10T08:45:29.329Z,59.84
2023-05-10T08:46:34.331Z,60.51
2023-05-10T08:47:38.446Z,57.67
2023-05-10T08:48:40.499Z,58.34
2023-05-10T08:49:43.604Z,59.05
2023-05-10T08:50:47.244Z,57.73
2023-05-10T08:51:53.041Z,56.65
2023-05-10T08:52:58.588Z,56.65
2023-05-10T08:54:00.814Z,57.27
2023-05-10T08:55:02.354Z,56.92
2023-05-10T08:56:04.561Z,56.22
2023-05-10T08:57:06.664Z,56.13
2023-05-10T08:58:09.977Z,56.90
2023-05-10T08:59:11.720Z,56.68
2023-05-10T09:00:14.536Z,58.21
2023-05-10T09:01:17.608Z,59.42
2023-05-10T09:02:20.939Z,58.58
2023-05-10T09:03:22.460Z,60.55
2023-05-10T09:04:24.127Z,60.08
2023-05-10T09:05:26.146Z,60.14
2023-05-10T09:06:27.895Z,60.59
2023-05-10T09:07:29.520Z,61.21
2023-05-10T09:08:31.073Z,58.52
2023-05-10T09:09:32.787Z,60.13
2023-05-10T09:10:34.506Z,57.41
2023-05-10T09:11:36.167Z,58.73
2023-05-10T09:12:38.280Z,58.69
2023-05-10T09:13:40.148Z,58.71
2023-05-10T09:14:42.161Z,57.56
2023-05-10T09:15:45.541Z,58.13
2023-05-10T09:16:48.173Z,59.83
2023-05-10T09:17:50.722Z,56.82
2023-05-10T09:18:52.319Z,55.81
2023-05-10T09:20:04.714Z,55.03
2023-05-10T09:21:06.265Z,54.78
2023-05-10T09:22:07.978Z,55.45
2023-05-10T09:23:09.545Z,53.05
2023-05-10T09:24:11.111Z,53.47
2023-05-10T09:25:15.385Z,53.73
2023-05-10T09:26:17.197Z,57.26
2023-05-10T09:27:27.649Z,57.97
2023-05-10T09:28:32.908Z,58.18
2023-05-10T09:29:41.413Z,57.40
2023-05-10T09:30:42.996Z,57.68
2023-05-10T09:31:51.802Z,57.78
2023-05-10T09:32:54.239Z,56.21
2023-05-10T09:33:55.758Z,54.06
2023-05-10T09:34:57.322Z,53.89
2023-05-10T09:36:08.335Z,54.58
2023-05-10T09:37:09.881Z,54.91
2023-05-10T09:38:11.464Z,55.36
2023-05-10T09:39:12.985Z,55.47
2023-05-10T09:40:16.768Z,54.10
2023-05-10T09:41:23.534Z,53.62
2023-05-10T09:42:25.112Z,54.81
2023-05-10T09:43:26.651Z,54.23
2023-05-10T09:44:28.175Z,53.43
2023-05-10T09:45:37.665Z,52.77
2023-05-10T09:46:40.373Z,53.84
2023-05-10T09:47:41.975Z,53.63
2023-05-10T09:48:46.163Z,53.12
2023-05-10T09:49:54.342Z,52.43
2023-05-10T09:50:58.607Z,53.01
2023-05-10T09:52:05.874Z,53.33
2023-05-10T09:53:07.426Z,52.54
2023-05-10T09:54:12.024Z,52.31
2023-05-10T09:55:13.644Z,52.59
2023-05-10T09:56:33.976Z,52.17
2023-05-10T09:57:35.553Z,52.74
2023-05-10T09:58:40.133Z,53.19
2023-05-10T09:59:44.269Z,53.27
2023-05-10T10:00:47.179Z,53.21
2023-05-10T10:01:52.349Z,53.63
2023-05-10T10:03:00.864Z,53.44
2023-05-10T10:04:07.468Z,52.95
2023-05-10T10:05:09.530Z,53.16
2023-05-10T10:06:18.791Z,56.93
2023-05-10T10:07:25.810Z,55.15
2023-05-10T10:08:27.797Z,52.30
2023-05-10T10:09:29.892Z,54.26
2023-05-10T10:10:33.071Z,54.62
2023-05-10T10:11:38.970Z,54.79
2023-05-10T10:12:42.112Z,53.98
2023-05-10T10:13:44.178Z,54.41
2023-05-10T10:14:49.539Z,53.25
2023-05-10T10:15:53.141Z,53.45
2023-05-10T10:17:06.467Z,54.85
2023-05-10T10:18:14.145Z,52.70
2023-05-10T10:19:16.082Z,55.66
2023-05-10T10:20:19.271Z,54.72
2023-05-10T10:21:21.536Z,54.73
2023-05-10T10:22:23.076Z,52.12
2023-05-10T10:23:24.680Z,50.82
2023-05-10T10:24:26.222Z,52.11
2023-05-10T10:25:27.813Z,52.59
2023-05-10T10:26:29.920Z,50.94
2023-05-10T10:27:47.498Z,50.19
2023-05-10T10:29:05.896Z,51.35
2023-05-10T10:30:31.005Z,51.22
2023-05-10T10:31:53.016Z,52.33
2023-05-10T10:33:36.520Z,51.91
2023-05-10T10:34:40.639Z,52.58
2023-05-10T10:35:43.689Z,52.17
2023-05-10T10:36:48.818Z,52.82
2023-05-10T10:37:51.942Z,53.59
2023-05-10T10:39:00.870Z,52.92
2023-05-10T10:40:26.087Z,53.36
2023-05-10T10:41:29.019Z,53.93
2023-05-10T10:42:46.104Z,53.14
2023-05-10T10:43:47.620Z,53.82
2023-05-10T10:44:49.153Z,52.95
2023-05-10T10:46:11.014Z,52.78
2023-05-10T10:47:12.555Z,54.71
2023-05-10T10:48:24.146Z,52.40
2023-05-10T10:49:25.870Z,52.51
2023-05-10T10:50:27.509Z,52.48
2023-05-10T10:51:31.688Z,51.77
2023-05-10T10:52:34.482Z,52.75
2023-05-10T10:53:38.142Z,53.40
2023-05-10T10:54:39.673Z,53.99
2023-05-10T10:55:47.912Z,53.59
2023-05-10T10:57:13.363Z,54.23
2023-05-10T10:58:34.263Z,52.57
2023-05-10T10:59:35.863Z,51.80
2023-05-10T11:00:38.345Z,52.49
2023-05-10T11:01:42.713Z,51.88
2023-05-10T11:02:52.703Z,52.65
2023-05-10T11:04:00.137Z,52.95
2023-05-10T11:05:25.134Z,53.66
2023-05-10T11:06:36.681Z,53.64
2023-05-10T11:07:52.747Z,53.12
2023-05-10T11:08:54.308Z,52.50
2023-05-10T11:09:55.951Z,53.33
2023-05-10T11:11:00.462Z,53.90
2023-05-10T11:12:09.416Z,54.03
2023-05-10T11:13:10.960Z,53.27
2023-05-10T11:14:12.541Z,53.58
2023-05-10T11:15:14.475Z,54.25
2023-05-10T11:16:22.888Z,53.48
2023-05-10T11:17:30.666Z,53.41
2023-05-10T11:18:32.297Z,52.19
2023-05-10T11:19:33.860Z,53.92
2023-05-10T11:20:41.220Z,52.69
2023-05-10T11:21:50.756Z,51.69
2023-05-10T11:22:55.578Z,51.39
2023-05-10T11:23:58.820Z,51.68
2023-05-10T11:25:00.514Z,51.53
2023-05-10T11:26:02.041Z,52.29
2023-05-10T11:27:03.968Z,53.02
2023-05-10T11:28:05.540Z,53.93
2023-05-10T11:29:07.201Z,53.62
2023-05-10T11:30:11.115Z,53.58
2023-05-10T11:31:17.326Z,53.92
2023-05-10T11:32:20.551Z,53.54
2023-05-10T11:33:22.140Z,53.54
2023-05-10T11:34:25.486Z,53.57
2023-05-10T11:35:28.864Z,53.56
2023-05-10T11:36:34.960Z,53.87
2023-05-10T11:37:37.054Z,52.48
2023-05-10T11:38:38.577Z,51.92
2023-05-10T11:39:47.040Z,51.88
2023-05-10T11:40:52.781Z,51.27
2023-05-10T11:41:54.636Z,51.13
2023-05-10T11:42:57.292Z,50.93
2023-05-10T11:43:59.167Z,50.94
2023-05-10T11:45:01.880Z,51.71
2023-05-10T11:46:03.681Z,52.17
2023-05-10T11:47:06.288Z,50.60
2023-05-10T11:48:08.765Z,51.23
2023-05-10T11:49:11.623Z,52.34
2023-05-10T11:50:13.255Z,52.54
2023-05-10T11:51:14.804Z,52.42
2023-05-10T11:52:16.320Z,52.79
2023-05-10T11:53:17.866Z,52.79
2023-05-10T11:54:19.398Z,52.54
2023-05-10T11:55:21.098Z,51.69
2023-05-10T11:56:22.941Z,50.41
2023-05-10T11:57:27.880Z,51.10
2023-05-10T11:58:29.393Z,51.20
2023-05-10T11:59:30.932Z,50.64
2023-05-10T12:00:32.747Z,50.83
2023-05-10T12:01:35.142Z,50.02
2023-05-10T12:02:36.838Z,50.13
2023-05-10T12:03:39.263Z,50.54
2023-05-10T12:04:41.650Z,49.95
2023-05-10T12:05:43.270Z,50.34
2023-05-10T12:06:44.939Z,50.66
2023-05-10T12:07:46.455Z,50.56
2023-05-10T12:08:49.243Z,49.83
2023-05-10T12:10:05.054Z,49.49
2023-05-10T12:11:09.293Z,50.22
2023-05-10T12:12:11.629Z,50.02
2023-05-10T12:13:14.434Z,49.56
2023-05-10T12:14:16.613Z,49.97
2023-05-10T12:15:25.339Z,48.63
2023-05-10T12:16:30.115Z,49.90
2023-05-10T12:17:31.852Z,49.19
2023-05-10T12:18:33.760Z,49.96
2023-05-10T12:19:39.168Z,49.31
2023-05-10T12:20:42.192Z,49.25
2023-05-10T12:21:45.092Z,50.43
2023-05-10T12:23:00.613Z,51.68
2023-05-10T12:24:04.350Z,50.50
2023-05-10T12:25:06.468Z,50.17
2023-05-10T12:26:10.514Z,50.06
2023-05-10T12:27:12.073Z,51.54
2023-05-10T12:28:13.645Z,52.09
2023-05-10T12:29:21.233Z,50.03
2023-05-10T12:30:26.611Z,50.70
2023-05-10T12:31:28.253Z,50.18
2023-05-10T12:32:42.787Z,49.79
2023-05-10T12:33:45.311Z,49.58
2023-05-10T12:34:47.932Z,50.69
2023-05-10T12:35:54.977Z,50.69
2023-05-10T12:36:56.871Z,51.04
2023-05-10T12:37:58.542Z,51.39
2023-05-10T12:39:05.673Z,50.54
2023-05-10T12:40:09.527Z,49.84
2023-05-10T12:41:13.214Z,50.76
2023-05-10T12:42:14.757Z,50.05
2023-05-10T12:43:16.346Z,49.90
2023-05-10T12:44:17.886Z,50.55
2023-05-10T12:45:19.497Z,49.91
2023-05-10T12:46:21.080Z,51.20
2023-05-10T12:47:22.638Z,50.58
2023-05-10T12:48:24.532Z,49.70
2023-05-10T12:49:26.130Z,49.76
2023-05-10T12:50:27.855Z,50.94
2023-05-10T12:51:29.388Z,51.00
2023-05-10T12:52:32.062Z,49.84
2023-05-10T12:53:33.577Z,49.52
2023-05-10T12:54:35.161Z,49.22
2023-05-10T12:55:36.701Z,48.98
2023-05-10T12:56:38.242Z,48.98
2023-05-10T12:57:39.779Z,49.69
2023-05-10T12:58:41.316Z,51.43
2023-05-10T12:59:42.811Z,50.47
2023-05-10T13:02:03.614Z,50.38
2023-05-10T13:03:06.047Z,52.69
2023-05-10T13:04:07.716Z,50.79
2023-05-10T13:05:09.646Z,50.74
2023-05-10T13:06:11.280Z,50.74
2023-05-10T13:07:13.146Z,51.39
2023-05-10T13:08:15.005Z,52.57
2023-05-10T13:09:16.596Z,53.03
2023-05-10T13:10:18.485Z,52.12
2023-05-10T13:11:20.362Z,53.42
2023-05-10T13:12:21.941Z,53.81
2023-05-10T13:13:23.516Z,53.19
2023-05-10T13:14:26.046Z,53.05
2023-05-10T13:15:27.897Z,54.21
2023-05-10T13:16:29.604Z,55.57
2023-05-10T13:17:32.223Z,55.82
2023-05-10T13:18:35.663Z,52.94
2023-05-10T13:19:37.265Z,53.53
2023-05-10T13:20:39.029Z,54.79
2023-05-10T13:21:40.797Z,54.50
2023-05-10T13:22:43.989Z,54.86
2023-05-10T13:23:45.592Z,55.05
2023-05-10T13:24:47.209Z,54.56
2023-05-10T13:25:48.785Z,55.39
2023-05-10T13:26:50.404Z,54.41
2023-05-10T13:27:52.017Z,54.53
2023-05-10T13:28:53.606Z,53.47
2023-05-10T13:29:55.400Z,53.86
2023-05-10T13:30:57.062Z,55.36
2023-05-10T13:32:00.119Z,54.56
2023-05-10T13:33:01.814Z,54.18
2023-05-10T13:34:05.078Z,53.59
2023-05-10T13:35:07.051Z,53.43
2023-05-10T13:36:08.829Z,53.34
2023-05-10T13:37:10.446Z,54.42
2023-05-10T13:38:12.002Z,54.08
2023-05-10T13:39:13.601Z,54.70
2023-05-10T13:40:16.633Z,55.04
2023-05-10T13:41:18.619Z,56.03
2023-05-10T13:42:20.219Z,55.56